sensor_id;sensor_type;location;lat;lon;timestamp;pressure;altitude;pressure_sealevel;temperature
10869;BMP180;62667;48.698;8.762;2023-12-04T00:02:06;95938.00;;;-4.80
10869;BMP180;62667;48.698;8.762;2023-12-04T00:04:34;95929.00;;;-4.80
10869;BMP180;62667;48.698;8.762;2023-12-04T00:07:04;95923.00;;;-4.90
10869;BMP180;62667;48.698;8.762;2023-12-04T00:09:31;95919.00;;;-4.90
10869;BMP180;62667;48.698;8.762;2023-12-04T00:11:58;95919.00;;;-4.90
10869;BMP180;62667;48.698;8.762;2023-12-04T00:14:26;95915.00;;;-4.90
10869;BMP180;62667;48.698;8.762;2023-12-04T00:16:53;95910.00;;;-4.90
10869;BMP180;62667;48.698;8.762;2023-12-04T00:19:22;95916.00;;;-4.80
10869;BMP180;62667;48.698;8.762;2023-12-04T00:21:49;95902.00;;;-5.00
10869;BMP180;62667;48.698;8.762;2023-12-04T00:24:16;95916.00;;;-5.10
10869;BMP180;62667;48.698;8.762;2023-12-04T00:26:44;95897.00;;;-5.10
10869;BMP180;62667;48.698;8.762;2023-12-04T00:29:11;95899.00;;;-5.10
10869;BMP180;62667;48.698;8.762;2023-12-04T00:31:38;95893.00;;;-5.20
10869;BMP180;62667;48.698;8.762;2023-12-04T00:34:06;95898.00;;;-5.10
10869;BMP180;62667;48.698;8.762;2023-12-04T00:36:34;95887.00;;;-5.20
10869;BMP180;62667;48.698;8.762;2023-12-04T00:39:02;95885.00;;;-5.20
10869;BMP180;62667;48.698;8.762;2023-12-04T00:41:30;95897.00;;;-5.10
10869;BMP180;62667;48.698;8.762;2023-12-04T00:43:57;95887.00;;;-5.20
10869;BMP180;62667;48.698;8.762;2023-12-04T00:46:25;95886.00;;;-5.20
10869;BMP180;62667;48.698;8.762;2023-12-04T00:48:52;95897.00;;;-5.20
10869;BMP180;62667;48.698;8.762;2023-12-04T00:51:19;95902.00;;;-5.10
10869;BMP180;62667;48.698;8.762;2023-12-04T00:53:48;95885.00;;;-5.20
10869;BMP180;62667;48.698;8.762;2023-12-04T00:56:15;95875.00;;;-5.10
10869;BMP180;62667;48.698;8.762;2023-12-04T00:58:44;95882.00;;;-5.10
10869;BMP180;62667;48.698;8.762;2023-12-04T01:01:12;95880.00;;;-5.10
10869;BMP180;62667;48.698;8.762;2023-12-04T01:03:40;95881.00;;;-5.10
10869;BMP180;62667;48.698;8.762;2023-12-04T01:06:07;95874.00;;;-5.10
10869;BMP180;62667;48.698;8.762;2023-12-04T01:08:35;95879.00;;;-4.90
10869;BMP180;62667;48.698;8.762;2023-12-04T01:11:04;95875.00;;;-5.00
10869;BMP180;62667;48.698;8.762;2023-12-04T01:13:31;95858.00;;;-4.90
10869;BMP180;62667;48.698;8.762;2023-12-04T01:15:59;95866.00;;;-4.80
10869;BMP180;62667;48.698;8.762;2023-12-04T01:18:26;95866.00;;;-4.70
10869;BMP180;62667;48.698;8.762;2023-12-04T01:20:53;95860.00;;;-4.80
10869;BMP180;62667;48.698;8.762;2023-12-04T01:23:21;95854.00;;;-4.90
10869;BMP180;62667;48.698;8.762;2023-12-04T01:25:48;95848.00;;;-4.80
10869;BMP180;62667;48.698;8.762;2023-12-04T01:28:17;95843.00;;;-4.80
10869;BMP180;62667;48.698;8.762;2023-12-04T01:30:45;95847.00;;;-4.80
10869;BMP180;62667;48.698;8.762;2023-12-04T01:33:12;95845.00;;;-4.70
10869;BMP180;62667;48.698;8.762;2023-12-04T01:35:39;95850.00;;;-4.70
10869;BMP180;62667;48.698;8.762;2023-12-04T01:38:07;95852.00;;;-4.70
10869;BMP180;62667;48.698;8.762;2023-12-04T01:40:35;95855.00;;;-4.70
10869;BMP180;62667;48.698;8.762;2023-12-04T01:43:02;95844.00;;;-4.60
10869;BMP180;62667;48.698;8.762;2023-12-04T01:45:31;95850.00;;;-4.70
10869;BMP180;62667;48.698;8.762;2023-12-04T01:47:58;95834.00;;;-4.60
10869;BMP180;62667;48.698;8.762;2023-12-04T01:50:29;95836.00;;;-4.60
10869;BMP180;62667;48.698;8.762;2023-12-04T01:52:56;95829.00;;;-4.60
10869;BMP180;62667;48.698;8.762;2023-12-04T01:55:24;95827.00;;;-4.60
10869;BMP180;62667;48.698;8.762;2023-12-04T01:57:51;95823.00;;;-4.60
10869;BMP180;62667;48.698;8.762;2023-12-04T02:00:19;95824.00;;;-4.60
10869;BMP180;62667;48.698;8.762;2023-12-04T02:02:48;95826.00;;;-4.50
10869;BMP180;62667;48.698;8.762;2023-12-04T02:05:16;95833.00;;;-4.70
10869;BMP180;62667;48.698;8.762;2023-12-04T02:07:46;95831.00;;;-4.60
10869;BMP180;62667;48.698;8.762;2023-12-04T02:10:13;95837.00;;;-4.70
10869;BMP180;62667;48.698;8.762;2023-12-04T02:12:41;95832.00;;;-4.70
10869;BMP180;62667;48.698;8.762;2023-12-04T02:15:09;95827.00;;;-4.70
10869;BMP180;62667;48.698;8.762;2023-12-04T02:17:40;95828.00;;;-4.80
10869;BMP180;62667;48.698;8.762;2023-12-04T02:20:09;95825.00;;;-4.80
10869;BMP180;62667;48.698;8.762;2023-12-04T02:22:39;95827.00;;;-4.80
10869;BMP180;62667;48.698;8.762;2023-12-04T02:25:08;95815.00;;;-4.80
10869;BMP180;62667;48.698;8.762;2023-12-04T02:27:40;95812.00;;;-4.80
10869;BMP180;62667;48.698;8.762;2023-12-04T02:30:12;95807.00;;;-4.80
10869;BMP180;62667;48.698;8.762;2023-12-04T02:32:44;95815.00;;;-4.80
10869;BMP180;62667;48.698;8.762;2023-12-04T02:35:13;95808.00;;;-4.90
10869;BMP180;62667;48.698;8.762;2023-12-04T02:37:41;95803.00;;;-4.90
10869;BMP180;62667;48.698;8.762;2023-12-04T02:40:11;95797.00;;;-4.80
10869;BMP180;62667;48.698;8.762;2023-12-04T02:42:39;95800.00;;;-4.80
10869;BMP180;62667;48.698;8.762;2023-12-04T02:45:08;95783.00;;;-4.70
10869;BMP180;62667;48.698;8.762;2023-12-04T02:47:35;95785.00;;;-4.70
10869;BMP180;62667;48.698;8.762;2023-12-04T02:50:03;95777.00;;;-4.70
10869;BMP180;62667;48.698;8.762;2023-12-04T02:52:31;95784.00;;;-4.70
10869;BMP180;62667;48.698;8.762;2023-12-04T02:54:58;95776.00;;;-4.70
10869;BMP180;62667;48.698;8.762;2023-12-04T02:57:27;95771.00;;;-4.60
10869;BMP180;62667;48.698;8.762;2023-12-04T02:59:55;95768.00;;;-4.60
10869;BMP180;62667;48.698;8.762;2023-12-04T03:02:22;95771.00;;;-4.50
10869;BMP180;62667;48.698;8.762;2023-12-04T03:04:50;95767.00;;;-4.50
10869;BMP180;62667;48.698;8.762;2023-12-04T03:07:17;95761.00;;;-4.50
10869;BMP180;62667;48.698;8.762;2023-12-04T03:09:46;95755.00;;;-4.50
10869;BMP180;62667;48.698;8.762;2023-12-04T03:12:13;95737.00;;;-4.50
10869;BMP180;62667;48.698;8.762;2023-12-04T03:14:42;95737.00;;;-4.40
10869;BMP180;62667;48.698;8.762;2023-12-04T03:17:09;95737.00;;;-4.40
10869;BMP180;62667;48.698;8.762;2023-12-04T03:19:36;95729.00;;;-4.40
10869;BMP180;62667;48.698;8.762;2023-12-04T03:22:04;95726.00;;;-4.50
10869;BMP180;62667;48.698;8.762;2023-12-04T03:24:31;95714.00;;;-4.50
10869;BMP180;62667;48.698;8.762;2023-12-04T03:26:58;95718.00;;;-4.50
10869;BMP180;62667;48.698;8.762;2023-12-04T03:29:26;95704.00;;;-4.50
10869;BMP180;62667;48.698;8.762;2023-12-04T03:31:54;95696.00;;;-4.70
10869;BMP180;62667;48.698;8.762;2023-12-04T03:34:22;95700.00;;;-4.70
10869;BMP180;62667;48.698;8.762;2023-12-04T03:36:49;95699.00;;;-4.60
10869;BMP180;62667;48.698;8.762;2023-12-04T03:39:17;95700.00;;;-4.60
10869;BMP180;62667;48.698;8.762;2023-12-04T03:41:44;95705.00;;;-4.50
10869;BMP180;62667;48.698;8.762;2023-12-04T03:44:12;95698.00;;;-4.50
10869;BMP180;62667;48.698;8.762;2023-12-04T03:46:39;95701.00;;;-4.50
10869;BMP180;62667;48.698;8.762;2023-12-04T03:49:08;95704.00;;;-4.50
10869;BMP180;62667;48.698;8.762;2023-12-04T03:51:35;95705.00;;;-4.50
10869;BMP180;62667;48.698;8.762;2023-12-04T03:54:02;95698.00;;;-4.40
10869;BMP180;62667;48.698;8.762;2023-12-04T03:56:30;95694.00;;;-4.40
10869;BMP180;62667;48.698;8.762;2023-12-04T03:58:57;95693.00;;;-4.30
10869;BMP180;62667;48.698;8.762;2023-12-04T04:01:24;95687.00;;;-4.30
10869;BMP180;62667;48.698;8.762;2023-12-04T04:03:52;95690.00;;;-4.30
10869;BMP180;62667;48.698;8.762;2023-12-04T04:06:20;95687.00;;;-4.40
10869;BMP180;62667;48.698;8.762;2023-12-04T04:08:48;95697.00;;;-4.40
10869;BMP180;62667;48.698;8.762;2023-12-04T04:11:15;95698.00;;;-4.30
10869;BMP180;62667;48.698;8.762;2023-12-04T04:13:43;95692.00;;;-4.20
10869;BMP180;62667;48.698;8.762;2023-12-04T04:16:14;95690.00;;;-4.20
10869;BMP180;62667;48.698;8.762;2023-12-04T04:18:42;95687.00;;;-4.10
10869;BMP180;62667;48.698;8.762;2023-12-04T04:21:10;95681.00;;;-4.30
10869;BMP180;62667;48.698;8.762;2023-12-04T04:23:38;95682.00;;;-4.30
10869;BMP180;62667;48.698;8.762;2023-12-04T04:26:06;95676.00;;;-4.30
10869;BMP180;62667;48.698;8.762;2023-12-04T04:28:34;95678.00;;;-4.20
10869;BMP180;62667;48.698;8.762;2023-12-04T04:31:01;95681.00;;;-4.30
10869;BMP180;62667;48.698;8.762;2023-12-04T04:33:28;95679.00;;;-4.10
10869;BMP180;62667;48.698;8.762;2023-12-04T04:35:56;95680.00;;;-4.30
10869;BMP180;62667;48.698;8.762;2023-12-04T04:38:23;95674.00;;;-4.30
10869;BMP180;62667;48.698;8.762;2023-12-04T04:40:52;95672.00;;;-4.40
10869;BMP180;62667;48.698;8.762;2023-12-04T04:43:19;95662.00;;;-4.30
10869;BMP180;62667;48.698;8.762;2023-12-04T04:45:47;95666.00;;;-4.40
10869;BMP180;62667;48.698;8.762;2023-12-04T04:48:14;95657.00;;;-4.30
10869;BMP180;62667;48.698;8.762;2023-12-04T04:50:41;95661.00;;;-4.20
10869;BMP180;62667;48.698;8.762;2023-12-04T04:53:09;95651.00;;;-4.30
10869;BMP180;62667;48.698;8.762;2023-12-04T04:55:36;95643.00;;;-4.30
10869;BMP180;62667;48.698;8.762;2023-12-04T04:58:05;95641.00;;;-4.30
10869;BMP180;62667;48.698;8.762;2023-12-04T05:00:35;95629.00;;;-4.30
10869;BMP180;62667;48.698;8.762;2023-12-04T05:03:02;95637.00;;;-4.20
10869;BMP180;62667;48.698;8.762;2023-12-04T05:05:30;95640.00;;;-4.10
10869;BMP180;62667;48.698;8.762;2023-12-04T05:07:57;95638.00;;;-4.20
10869;BMP180;62667;48.698;8.762;2023-12-04T05:10:24;95636.00;;;-4.30
10869;BMP180;62667;48.698;8.762;2023-12-04T05:12:52;95629.00;;;-4.50
10869;BMP180;62667;48.698;8.762;2023-12-04T05:15:20;95632.00;;;-4.40
10869;BMP180;62667;48.698;8.762;2023-12-04T05:17:48;95625.00;;;-4.40
10869;BMP180;62667;48.698;8.762;2023-12-04T05:20:15;95625.00;;;-4.40
10869;BMP180;62667;48.698;8.762;2023-12-04T05:22:42;95622.00;;;-4.40
10869;BMP180;62667;48.698;8.762;2023-12-04T05:25:10;95618.00;;;-4.40
10869;BMP180;62667;48.698;8.762;2023-12-04T05:27:37;95615.00;;;-4.30
10869;BMP180;62667;48.698;8.762;2023-12-04T05:30:06;95603.00;;;-4.20
10869;BMP180;62667;48.698;8.762;2023-12-04T05:32:35;95608.00;;;-4.30
10869;BMP180;62667;48.698;8.762;2023-12-04T05:35:02;95611.00;;;-4.30
10869;BMP180;62667;48.698;8.762;2023-12-04T05:37:30;95597.00;;;-4.30
10869;BMP180;62667;48.698;8.762;2023-12-04T05:39:58;95605.00;;;-4.20
10869;BMP180;62667;48.698;8.762;2023-12-04T05:42:25;95602.00;;;-4.20
10869;BMP180;62667;48.698;8.762;2023-12-04T05:44:52;95605.00;;;-4.30
10869;BMP180;62667;48.698;8.762;2023-12-04T05:47:21;95607.00;;;-4.20
10869;BMP180;62667;48.698;8.762;2023-12-04T05:49:50;95608.00;;;-4.20
10869;BMP180;62667;48.698;8.762;2023-12-04T05:52:17;95601.00;;;-4.10
10869;BMP180;62667;48.698;8.762;2023-12-04T05:54:44;95595.00;;;-4.10
10869;BMP180;62667;48.698;8.762;2023-12-04T05:57:12;95596.00;;;-4.10
10869;BMP180;62667;48.698;8.762;2023-12-04T05:59:39;95596.00;;;-4.10
10869;BMP180;62667;48.698;8.762;2023-12-04T06:02:07;95606.00;;;-4.00
10869;BMP180;62667;48.698;8.762;2023-12-04T06:04:34;95585.00;;;-4.00
10869;BMP180;62667;48.698;8.762;2023-12-04T06:07:03;95597.00;;;-3.90
10869;BMP180;62667;48.698;8.762;2023-12-04T06:09:30;95601.00;;;-4.00
10869;BMP180;62667;48.698;8.762;2023-12-04T06:11:57;95599.00;;;-4.10
10869;BMP180;62667;48.698;8.762;2023-12-04T06:14:34;95597.00;;;-4.00
10869;BMP180;62667;48.698;8.762;2023-12-04T06:17:01;95588.00;;;-3.90
10869;BMP180;62667;48.698;8.762;2023-12-04T06:19:31;95591.00;;;-3.70
10869;BMP180;62667;48.698;8.762;2023-12-04T06:21:58;95588.00;;;-3.70
10869;BMP180;62667;48.698;8.762;2023-12-04T06:24:27;95585.00;;;-3.80
10869;BMP180;62667;48.698;8.762;2023-12-04T06:26:55;95575.00;;;-3.80
10869;BMP180;62667;48.698;8.762;2023-12-04T06:29:24;95574.00;;;-3.70
10869;BMP180;62667;48.698;8.762;2023-12-04T06:31:52;95564.00;;;-3.80
10869;BMP180;62667;48.698;8.762;2023-12-04T06:34:20;95567.00;;;-3.80
10869;BMP180;62667;48.698;8.762;2023-12-04T06:36:48;95567.00;;;-3.70
10869;BMP180;62667;48.698;8.762;2023-12-04T06:39:17;95562.00;;;-3.60
10869;BMP180;62667;48.698;8.762;2023-12-04T06:41:46;95563.00;;;-3.70
10869;BMP180;62667;48.698;8.762;2023-12-04T06:44:15;95553.00;;;-3.70
10869;BMP180;62667;48.698;8.762;2023-12-04T06:46:44;95549.00;;;-3.60
10869;BMP180;62667;48.698;8.762;2023-12-04T06:49:17;95551.00;;;-3.70
10869;BMP180;62667;48.698;8.762;2023-12-04T06:51:45;95541.00;;;-3.50
10869;BMP180;62667;48.698;8.762;2023-12-04T06:54:12;95549.00;;;-3.70
10869;BMP180;62667;48.698;8.762;2023-12-04T06:56:40;95539.00;;;-3.60
10869;BMP180;62667;48.698;8.762;2023-12-04T06:59:09;95546.00;;;-3.70
10869;BMP180;62667;48.698;8.762;2023-12-04T07:01:36;95535.00;;;-3.70
10869;BMP180;62667;48.698;8.762;2023-12-04T07:04:04;95536.00;;;-3.60
10869;BMP180;62667;48.698;8.762;2023-12-04T07:06:35;95531.00;;;-3.60
10869;BMP180;62667;48.698;8.762;2023-12-04T07:09:03;95524.00;;;-3.60
10869;BMP180;62667;48.698;8.762;2023-12-04T07:11:31;95518.00;;;-3.60
10869;BMP180;62667;48.698;8.762;2023-12-04T07:13:58;95519.00;;;-3.70
10869;BMP180;62667;48.698;8.762;2023-12-04T07:16:27;95521.00;;;-3.80
10869;BMP180;62667;48.698;8.762;2023-12-04T07:18:54;95527.00;;;-4.00
10869;BMP180;62667;48.698;8.762;2023-12-04T07:21:24;95528.00;;;-3.80
10869;BMP180;62667;48.698;8.762;2023-12-04T07:23:52;95527.00;;;-3.90
10869;BMP180;62667;48.698;8.762;2023-12-04T07:26:19;95514.00;;;-3.70
10869;BMP180;62667;48.698;8.762;2023-12-04T07:28:46;95527.00;;;-3.70
10869;BMP180;62667;48.698;8.762;2023-12-04T07:31:14;95537.00;;;-3.70
10869;BMP180;62667;48.698;8.762;2023-12-04T07:33:43;95529.00;;;-3.60
10869;BMP180;62667;48.698;8.762;2023-12-04T07:36:11;95525.00;;;-3.50
10869;BMP180;62667;48.698;8.762;2023-12-04T07:38:38;95542.00;;;-3.50
10869;BMP180;62667;48.698;8.762;2023-12-04T07:41:06;95526.00;;;-3.40
10869;BMP180;62667;48.698;8.762;2023-12-04T07:43:33;95519.00;;;-3.20
10869;BMP180;62667;48.698;8.762;2023-12-04T07:46:01;95518.00;;;-3.10
10869;BMP180;62667;48.698;8.762;2023-12-04T07:48:29;95526.00;;;-3.00
10869;BMP180;62667;48.698;8.762;2023-12-04T07:50:58;95526.00;;;-3.00
10869;BMP180;62667;48.698;8.762;2023-12-04T07:53:25;95513.00;;;-2.90
10869;BMP180;62667;48.698;8.762;2023-12-04T07:55:53;95534.00;;;-2.90
10869;BMP180;62667;48.698;8.762;2023-12-04T07:58:23;95520.00;;;-2.90
10869;BMP180;62667;48.698;8.762;2023-12-04T08:00:50;95513.00;;;-2.80
10869;BMP180;62667;48.698;8.762;2023-12-04T08:03:18;95514.00;;;-2.80
10869;BMP180;62667;48.698;8.762;2023-12-04T08:05:45;95513.00;;;-2.90
10869;BMP180;62667;48.698;8.762;2023-12-04T08:08:14;95503.00;;;-2.90
10869;BMP180;62667;48.698;8.762;2023-12-04T08:10:42;95501.00;;;-2.80
10869;BMP180;62667;48.698;8.762;2023-12-04T08:13:09;95507.00;;;-2.10
10869;BMP180;62667;48.698;8.762;2023-12-04T08:15:36;95495.00;;;-1.70
10869;BMP180;62667;48.698;8.762;2023-12-04T08:18:04;95500.00;;;-1.90
10869;BMP180;62667;48.698;8.762;2023-12-04T08:20:31;95491.00;;;-1.90
10869;BMP180;62667;48.698;8.762;2023-12-04T08:22:59;95491.00;;;-2.00
10869;BMP180;62667;48.698;8.762;2023-12-04T08:25:28;95497.00;;;-1.90
10869;BMP180;62667;48.698;8.762;2023-12-04T08:27:57;95487.00;;;-2.10
10869;BMP180;62667;48.698;8.762;2023-12-04T08:30:25;95482.00;;;-2.10
10869;BMP180;62667;48.698;8.762;2023-12-04T08:32:53;95500.00;;;-2.20
10869;BMP180;62667;48.698;8.762;2023-12-04T08:35:22;95496.00;;;-2.40
10869;BMP180;62667;48.698;8.762;2023-12-04T08:37:49;95503.00;;;-2.30
10869;BMP180;62667;48.698;8.762;2023-12-04T08:40:17;95449.00;;;-2.30
10869;BMP180;62667;48.698;8.762;2023-12-04T08:42:46;95490.00;;;-2.20
10869;BMP180;62667;48.698;8.762;2023-12-04T08:45:16;95481.00;;;-2.10
10869;BMP180;62667;48.698;8.762;2023-12-04T08:47:44;95504.00;;;-2.10
10869;BMP180;62667;48.698;8.762;2023-12-04T08:50:12;95497.00;;;-2.10
10869;BMP180;62667;48.698;8.762;2023-12-04T08:52:40;95496.00;;;-2.20
10869;BMP180;62667;48.698;8.762;2023-12-04T08:55:08;95487.00;;;-2.10
10869;BMP180;62667;48.698;8.762;2023-12-04T08:57:35;95499.00;;;-2.00
10869;BMP180;62667;48.698;8.762;2023-12-04T09:00:05;95495.00;;;-2.00
10869;BMP180;62667;48.698;8.762;2023-12-04T09:02:34;95496.00;;;-1.90
10869;BMP180;62667;48.698;8.762;2023-12-04T09:05:01;95501.00;;;-2.00
10869;BMP180;62667;48.698;8.762;2023-12-04T09:07:29;95504.00;;;-2.00
10869;BMP180;62667;48.698;8.762;2023-12-04T09:09:56;95510.00;;;-2.00
10869;BMP180;62667;48.698;8.762;2023-12-04T09:12:24;95516.00;;;-2.10
10869;BMP180;62667;48.698;8.762;2023-12-04T09:14:52;95509.00;;;-2.10
10869;BMP180;62667;48.698;8.762;2023-12-04T09:17:21;95510.00;;;-2.40
10869;BMP180;62667;48.698;8.762;2023-12-04T09:19:48;95528.00;;;-2.50
10869;BMP180;62667;48.698;8.762;2023-12-04T09:22:15;95516.00;;;-2.40
10869;BMP180;62667;48.698;8.762;2023-12-04T09:24:43;95522.00;;;-2.30
10869;BMP180;62667;48.698;8.762;2023-12-04T09:27:10;95519.00;;;-2.30
10869;BMP180;62667;48.698;8.762;2023-12-04T09:29:38;95509.00;;;-2.10
10869;BMP180;62667;48.698;8.762;2023-12-04T09:32:06;95507.00;;;-2.20
10869;BMP180;62667;48.698;8.762;2023-12-04T09:34:35;95506.00;;;-2.10
10869;BMP180;62667;48.698;8.762;2023-12-04T09:37:03;95485.00;;;-2.00
10869;BMP180;62667;48.698;8.762;2023-12-04T09:39:31;95494.00;;;-1.80
10869;BMP180;62667;48.698;8.762;2023-12-04T09:41:59;95503.00;;;-1.80
10869;BMP180;62667;48.698;8.762;2023-12-04T09:44:28;95499.00;;;-1.60
10869;BMP180;62667;48.698;8.762;2023-12-04T09:46:57;95505.00;;;-1.80
10869;BMP180;62667;48.698;8.762;2023-12-04T09:49:28;95497.00;;;-1.50
10869;BMP180;62667;48.698;8.762;2023-12-04T09:51:58;95505.00;;;-1.50
10869;BMP180;62667;48.698;8.762;2023-12-04T09:54:26;95516.00;;;-1.20
10869;BMP180;62667;48.698;8.762;2023-12-04T09:56:53;95511.00;;;-1.20
10869;BMP180;62667;48.698;8.762;2023-12-04T09:59:24;95504.00;;;-1.30
10869;BMP180;62667;48.698;8.762;2023-12-04T10:01:52;95520.00;;;-1.00
10869;BMP180;62667;48.698;8.762;2023-12-04T10:04:20;95507.00;;;-1.00
10869;BMP180;62667;48.698;8.762;2023-12-04T10:06:50;95503.00;;;-0.90
10869;BMP180;62667;48.698;8.762;2023-12-04T10:09:20;95507.00;;;-1.00
10869;BMP180;62667;48.698;8.762;2023-12-04T10:11:49;95488.00;;;-1.00
10869;BMP180;62667;48.698;8.762;2023-12-04T10:14:18;95511.00;;;-1.10
10869;BMP180;62667;48.698;8.762;2023-12-04T10:16:47;95482.00;;;-1.10
10869;BMP180;62667;48.698;8.762;2023-12-04T10:19:19;95474.00;;;-1.10
10869;BMP180;62667;48.698;8.762;2023-12-04T10:21:49;95472.00;;;-0.90
10869;BMP180;62667;48.698;8.762;2023-12-04T10:24:31;95463.00;;;-1.40
10869;BMP180;62667;48.698;8.762;2023-12-04T10:26:59;95444.00;;;-1.40
10869;BMP180;62667;48.698;8.762;2023-12-04T10:29:40;95445.00;;;-1.30
10869;BMP180;62667;48.698;8.762;2023-12-04T10:32:08;95453.00;;;-1.30
10869;BMP180;62667;48.698;8.762;2023-12-04T10:34:38;95436.00;;;-1.00
10869;BMP180;62667;48.698;8.762;2023-12-04T10:37:10;95437.00;;;-0.90
10869;BMP180;62667;48.698;8.762;2023-12-04T10:39:46;95407.00;;;-0.80
10869;BMP180;62667;48.698;8.762;2023-12-04T10:42:24;95418.00;;;-0.60
10869;BMP180;62667;48.698;8.762;2023-12-04T10:44:54;95397.00;;;-0.70
10869;BMP180;62667;48.698;8.762;2023-12-04T10:47:23;95405.00;;;-0.60
10869;BMP180;62667;48.698;8.762;2023-12-04T10:49:51;95399.00;;;-0.60
10869;BMP180;62667;48.698;8.762;2023-12-04T10:52:18;95391.00;;;-0.50
10869;BMP180;62667;48.698;8.762;2023-12-04T10:54:47;95406.00;;;-0.30
10869;BMP180;62667;48.698;8.762;2023-12-04T10:57:23;95394.00;;;-0.40
10869;BMP180;62667;48.698;8.762;2023-12-04T10:59:57;95403.00;;;-0.50
10869;BMP180;62667;48.698;8.762;2023-12-04T11:02:26;95411.00;;;-0.40
10869;BMP180;62667;48.698;8.762;2023-12-04T11:05:01;95409.00;;;-0.60
10869;BMP180;62667;48.698;8.762;2023-12-04T11:07:31;95405.00;;;-0.60
10869;BMP180;62667;48.698;8.762;2023-12-04T11:10:01;95402.00;;;-1.20
10869;BMP180;62667;48.698;8.762;2023-12-04T11:12:30;95388.00;;;-1.30
10869;BMP180;62667;48.698;8.762;2023-12-04T11:15:03;95383.00;;;-1.30
10869;BMP180;62667;48.698;8.762;2023-12-04T11:17:34;95386.00;;;-1.60
10869;BMP180;62667;48.698;8.762;2023-12-04T11:20:09;95370.00;;;-1.50
10869;BMP180;62667;48.698;8.762;2023-12-04T11:22:38;95359.00;;;-1.30
10869;BMP180;62667;48.698;8.762;2023-12-04T11:25:09;95352.00;;;-1.10
10869;BMP180;62667;48.698;8.762;2023-12-04T11:27:37;95336.00;;;-0.90
10869;BMP180;62667;48.698;8.762;2023-12-04T11:30:06;95347.00;;;-0.80
10869;BMP180;62667;48.698;8.762;2023-12-04T11:32:44;95335.00;;;-0.50
10869;BMP180;62667;48.698;8.762;2023-12-04T11:35:14;95317.00;;;-0.20
10869;BMP180;62667;48.698;8.762;2023-12-04T11:37:45;95314.00;;;0.00
10869;BMP180;62667;48.698;8.762;2023-12-04T11:40:16;95311.00;;;0.10
10869;BMP180;62667;48.698;8.762;2023-12-04T11:42:44;95308.00;;;0.30
10869;BMP180;62667;48.698;8.762;2023-12-04T11:45:18;95307.00;;;0.30
10869;BMP180;62667;48.698;8.762;2023-12-04T11:47:50;95303.00;;;-0.10
10869;BMP180;62667;48.698;8.762;2023-12-04T11:50:19;95304.00;;;0.00
10869;BMP180;62667;48.698;8.762;2023-12-04T11:52:47;95298.00;;;-0.10
10869;BMP180;62667;48.698;8.762;2023-12-04T11:55:21;95288.00;;;-0.20
10869;BMP180;62667;48.698;8.762;2023-12-04T11:57:54;95286.00;;;-0.10
10869;BMP180;62667;48.698;8.762;2023-12-04T12:00:24;95297.00;;;0.10
10869;BMP180;62667;48.698;8.762;2023-12-04T12:03:09;95271.00;;;0.00
10869;BMP180;62667;48.698;8.762;2023-12-04T12:05:37;95260.00;;;0.30
10869;BMP180;62667;48.698;8.762;2023-12-04T12:08:07;95265.00;;;0.30
10869;BMP180;62667;48.698;8.762;2023-12-04T12:10:36;95282.00;;;0.10
10869;BMP180;62667;48.698;8.762;2023-12-04T12:13:04;95278.00;;;0.00
10869;BMP180;62667;48.698;8.762;2023-12-04T12:15:32;95287.00;;;0.10
10869;BMP180;62667;48.698;8.762;2023-12-04T12:18:00;95268.00;;;0.10
10869;BMP180;62667;48.698;8.762;2023-12-04T12:20:27;95261.00;;;0.20
10869;BMP180;62667;48.698;8.762;2023-12-04T12:22:55;95270.00;;;0.10
10869;BMP180;62667;48.698;8.762;2023-12-04T12:25:22;95264.00;;;0.10
10869;BMP180;62667;48.698;8.762;2023-12-04T12:27:53;95264.00;;;-0.10
10869;BMP180;62667;48.698;8.762;2023-12-04T12:30:21;95253.00;;;0.00
10869;BMP180;62667;48.698;8.762;2023-12-04T12:32:50;95247.00;;;0.00
10869;BMP180;62667;48.698;8.762;2023-12-04T12:35:18;95243.00;;;-0.10
10869;BMP180;62667;48.698;8.762;2023-12-04T12:37:46;95239.00;;;-0.10
10869;BMP180;62667;48.698;8.762;2023-12-04T12:40:14;95243.00;;;-0.30
10869;BMP180;62667;48.698;8.762;2023-12-04T12:42:44;95236.00;;;-0.40
10869;BMP180;62667;48.698;8.762;2023-12-04T12:45:14;95235.00;;;-0.40
10869;BMP180;62667;48.698;8.762;2023-12-04T12:47:42;95245.00;;;-0.70
10869;BMP180;62667;48.698;8.762;2023-12-04T12:50:10;95230.00;;;-0.80
10869;BMP180;62667;48.698;8.762;2023-12-04T12:52:39;95216.00;;;-0.60
10869;BMP180;62667;48.698;8.762;2023-12-04T12:55:08;95215.00;;;-0.60
10869;BMP180;62667;48.698;8.762;2023-12-04T12:57:35;95220.00;;;-0.60
10869;BMP180;62667;48.698;8.762;2023-12-04T13:00:05;95216.00;;;-0.70
10869;BMP180;62667;48.698;8.762;2023-12-04T13:02:36;95223.00;;;-0.90
10869;BMP180;62667;48.698;8.762;2023-12-04T13:05:05;95216.00;;;-0.50
10869;BMP180;62667;48.698;8.762;2023-12-04T13:07:33;95215.00;;;-0.70
10869;BMP180;62667;48.698;8.762;2023-12-04T13:10:04;95214.00;;;-0.60
10869;BMP180;62667;48.698;8.762;2023-12-04T13:12:32;95202.00;;;-0.40
10869;BMP180;62667;48.698;8.762;2023-12-04T13:14:59;95194.00;;;-0.40
10869;BMP180;62667;48.698;8.762;2023-12-04T13:17:27;95191.00;;;-0.40
10869;BMP180;62667;48.698;8.762;2023-12-04T13:19:56;95187.00;;;-0.20
10869;BMP180;62667;48.698;8.762;2023-12-04T13:22:24;95189.00;;;-0.50
10869;BMP180;62667;48.698;8.762;2023-12-04T13:24:52;95191.00;;;-0.20
10869;BMP180;62667;48.698;8.762;2023-12-04T13:27:19;95181.00;;;-0.40
10869;BMP180;62667;48.698;8.762;2023-12-04T13:29:47;95182.00;;;-0.50
10869;BMP180;62667;48.698;8.762;2023-12-04T13:32:16;95171.00;;;-0.40
10869;BMP180;62667;48.698;8.762;2023-12-04T13:34:43;95181.00;;;-0.50
10869;BMP180;62667;48.698;8.762;2023-12-04T13:37:14;95173.00;;;-0.50
10869;BMP180;62667;48.698;8.762;2023-12-04T13:39:42;95167.00;;;-0.40
10869;BMP180;62667;48.698;8.762;2023-12-04T13:42:15;95155.00;;;-0.40
10869;BMP180;62667;48.698;8.762;2023-12-04T13:45:00;95156.00;;;-0.20
10869;BMP180;62667;48.698;8.762;2023-12-04T13:47:28;95157.00;;;-0.10
10869;BMP180;62667;48.698;8.762;2023-12-04T13:49:55;95157.00;;;-0.10
10869;BMP180;62667;48.698;8.762;2023-12-04T13:52:25;95139.00;;;0.00
10869;BMP180;62667;48.698;8.762;2023-12-04T13:54:58;95131.00;;;0.20
10869;BMP180;62667;48.698;8.762;2023-12-04T13:57:26;95126.00;;;0.30
10869;BMP180;62667;48.698;8.762;2023-12-04T13:59:59;95122.00;;;0.20
10869;BMP180;62667;48.698;8.762;2023-12-04T14:02:26;95110.00;;;0.10
10869;BMP180;62667;48.698;8.762;2023-12-04T14:04:54;95127.00;;;-0.30
10869;BMP180;62667;48.698;8.762;2023-12-04T14:07:21;95112.00;;;-0.20
10869;BMP180;62667;48.698;8.762;2023-12-04T14:09:52;95128.00;;;-0.40
10869;BMP180;62667;48.698;8.762;2023-12-04T14:12:19;95126.00;;;-0.40
10869;BMP180;62667;48.698;8.762;2023-12-04T14:14:47;95123.00;;;-0.40
10869;BMP180;62667;48.698;8.762;2023-12-04T14:17:15;95109.00;;;-0.40